Coos Bay, OR

1:46 PM PDT on August 30, 2015 (GMT -0700)
Red Dike Road | | Change Station
CLOSE
Current Station
Personal Weather Station
Location: Coos Bay, OR
Elevation: 39 ft
Nearby Weather Stations

Elev 39 ft 43.33 °N, 124.23 °W | Updated 6 minutes ago

Mostly Cloudy
Mostly Cloudy
70.5 °F
Feels Like 75 °F
N
7.3
Wind Variable Wind from SSW

Today
High -- | Low -- °F
--% Chance of Precip.
Yesterday
High -- | Low -- °F
Precip. -- in
6:38 AM 7:55 PM
Full, 98% visible
Pressure 30.09 in
Visibility 10.0 miles
Clouds Scattered Clouds 1700 ft
Heat Index 75 °F
Dew Point 58 °F
Humidity 64%
Rainfall 0.40 in
Snow Depth Not available.
UV 7 out of 12
Pollen .50 out of 12
Air Quality Not available.
Flu Activity Not available.
METAR KOTH 302035Z 24012G15KT 10SM SCT017 21/17 A3009 RMK AO1
Pressure 30.09 in
Visibility 10.0 miles
Clouds Scattered Clouds 1700 ft
Heat Index 75 °F
Dew Point 58 °F
Humidity 64%
Rainfall 0.40 in
Snow Depth Not available.
UV 7 out of 12
Pollen .50 out of 12
Air Quality Not available.
Flu Activity Not available.
METAR KOTH 302035Z 24012G15KT 10SM SCT017 21/17 A3009 RMK AO1

10-Day Weather Forecast

×

Almanac

Astronomy

Aug. 30, 2015 Rise Set
Actual Time
Civil Twilight
Nautical Twilight
Astronomical Twilight
Moon
Length of Visible Light
Length of Day
Tomorrow will be .
, % of the Moon is Illuminated

Today's Extremes

State Highs State Lows

Community

WunderPhotos

Upload Photos

1,851,057 photos uploaded!

WunderBlogs® & News

Nearby

Air Quality

  Air Quality AQ Index Pollutant
Not available.

Snow Depth

Station Depth Elevation

Earthquake Activity

City Distance Mag. Time & Date
Minimum magnitude displayed is 2.5.

Coastal Water Temperatures

Place Temperature

Stations

Nearby Weather Stations

Station Location Temp. Windchill Dew Point Humidity Wind Precip. Elev Updated Type